Time;durP1;ratioP1;P1;durP2;ratioP2;P2;SDS_P1;SDS_P2;PMS_P1;PMS_P2;Temp;Humidity;BMP_temperature;BMP_pressure;BME280_temperature;BME280_humidity;BME280_pressure;Samples;Min_cycle;Max_cycle;Signal;HPM_P1;HPM_P2
2022/06/17 00:01:39;;;;;;;;;10.25;9.75;;;;;27.57;30.21;101430.19;5014098;28;46027;-85
2022/06/17 00:04:05;;;;;;;;;10.00;9.25;;;;;27.61;30.20;101436.81;4996313;28;45694;-86
2022/06/17 00:06:42;;;;;;;;;9.50;9.25;;;;;27.60;30.47;101440.53;5014168;28;45800;-86
2022/06/17 00:09:08;;;;;;;;;10.00;10.00;;;;;27.59;30.39;101429.97;5014314;28;45670;-85
2022/06/17 00:11:38;;;;;;;;;11.00;10.00;;;;;27.59;30.27;101436.19;5014043;28;45915;-86
2022/06/17 00:14:14;;;;;;;;;12.75;12.00;;;;;27.53;30.69;101435.13;5014052;28;45585;-85
2022/06/17 00:16:40;;;;;;;;;10.00;10.00;;;;;27.52;30.76;101428.09;5014194;28;46009;-85
2022/06/17 00:19:06;;;;;;;;;11.50;9.50;;;;;27.52;30.55;101433.47;4999511;28;48608;-85
2022/06/17 00:21:36;;;;;;;;;11.00;8.00;;;;;27.51;30.75;101433.66;4999940;28;47003;-85
2022/06/17 00:30:33;;;;;;;;;10.75;9.50;;;;;27.33;30.77;101428.78;4975522;28;46059;-85
2022/06/17 00:33:01;;;;;;;;;10.75;10.50;;;;;27.32;31.30;101426.28;4959306;28;47197;-85
2022/06/17 00:35:36;;;;;;;;;10.25;10.25;;;;;27.23;30.69;101405.94;4975857;28;45720;-85
2022/06/17 00:38:03;;;;;;;;;9.75;9.50;;;;;27.24;30.86;101424.59;4975715;28;45989;-85
2022/06/17 00:40:33;;;;;;;;;11.75;11.00;;;;;27.17;31.14;101420.19;4958778;28;47620;-85
2022/06/17 00:43:02;;;;;;;;;11.00;10.00;;;;;27.16;31.10;101427.41;4975786;28;45995;-86
2022/06/17 00:45:34;;;;;;;;;9.25;9.25;;;;;27.18;31.02;101433.44;4975520;28;45748;-85
2022/06/17 00:48:20;;;;;;;;;8.50;8.50;;;;;27.13;31.62;101433.22;4975357;28;46010;-86
2022/06/17 00:50:52;;;;;;;;;8.00;8.00;;;;;27.05;31.11;101423.41;4975432;28;46649;-85
2022/06/17 00:53:33;;;;;;;;;9.00;9.00;;;;;27.10;31.06;101437.13;4975676;28;46569;-84
2022/06/17 00:56:03;;;;;;;;;9.25;9.25;;;;;27.08;31.96;101433.81;4958839;28;45643;-84
2022/06/17 00:58:54;;;;;;;;;9.00;8.75;;;;;27.05;31.92;101423.41;4959308;28;45791;-84
2022/06/17 01:01:22;;;;;;;;;9.25;8.75;;;;;26.98;31.76;101427.13;4975424;28;45656;-84
2022/06/17 01:03:52;;;;;;;;;10.00;9.25;;;;;26.99;31.60;101437.66;4975313;28;48083;-84
2022/06/17 01:06:21;;;;;;;;;9.00;9.00;;;;;26.86;31.36;101420.56;5032063;28;45762;-84
2022/06/17 01:12:04;;;;;;;;;7.00;7.00;;;;;26.80;32.38;101432.09;5016393;28;45582;-84
2022/06/17 01:14:31;;;;;;;;;8.75;8.75;;;;;26.68;32.39;101421.03;4998870;28;47443;-84
2022/06/17 01:16:58;;;;;;;;;7.75;7.75;;;;;26.69;32.33;101428.91;4998953;28;45628;-84
2022/06/17 01:19:43;;;;;;;;;9.25;8.25;;;;;26.69;32.52;101436.16;5017432;28;45702;-84
2022/06/17 01:22:22;;;;;;;;;9.75;9.00;;;;;26.66;32.55;101441.94;5016561;28;45578;-83
2022/06/17 01:28:16;;;;;;;;;7.00;6.75;;;;;26.51;32.47;101425.84;5016368;28;45533;-84
2022/06/17 01:30:45;;;;;;;;;11.00;9.50;;;;;26.57;32.74;101441.22;5015856;28;45662;-84
2022/06/17 01:33:22;;;;;;;;;8.00;7.00;;;;;26.53;32.71;101431.88;4998578;28;46947;-84
2022/06/17 01:35:57;;;;;;;;;8.50;8.50;;;;;26.52;32.86;101435.59;4998539;28;48188;-83
2022/06/17 01:38:23;;;;;;;;;8.00;8.00;;;;;26.53;33.12;101453.38;5016707;28;45822;-84
2022/06/17 01:44:25;;;;;;;;;10.00;8.00;;;;;26.46;33.41;101460.56;5016135;28;46187;-84
2022/06/17 01:46:55;;;;;;;;;9.50;9.00;;;;;26.47;33.71;101453.31;4997953;28;46326;-83
2022/06/17 01:49:46;;;;;;;;;9.50;9.50;;;;;26.40;33.58;101450.56;5016230;28;45695;-84
2022/06/17 01:52:21;;;;;;;;;8.75;8.00;;;;;26.29;33.11;101430.41;5016223;28;45647;-84
2022/06/17 02:01:32;;;;;;;;;9.00;9.00;;;;;26.27;33.70;101456.66;5031949;28;45458;-84
2022/06/17 02:04:07;;;;;;;;;9.75;9.75;;;;;26.35;33.69;101473.66;5028802;28;45483;-84
2022/06/17 02:06:43;;;;;;;;;10.00;9.50;;;;;26.37;33.96;101480.53;5008171;28;46555;-84
2022/06/17 02:09:08;;;;;;;;;9.00;8.25;;;;;26.33;34.04;101468.50;5021136;28;45908;-86
2022/06/17 02:11:34;;;;;;;;;9.00;9.00;;;;;26.34;33.77;101478.22;4998998;28;45657;-84
2022/06/17 02:14:06;;;;;;;;;10.25;9.75;;;;;26.34;34.17;101480.09;5016275;28;45739;-82
2022/06/17 02:16:35;;;;;;;;;9.50;9.00;;;;;26.29;33.69;101484.16;5015675;28;45614;-83
2022/06/17 02:19:02;;;;;;;;;10.50;9.50;;;;;26.33;33.84;101498.06;5015911;28;46055;-83
2022/06/17 02:21:35;;;;;;;;;9.75;9.75;;;;;26.21;33.89;101478.03;5015871;28;45448;-85
2022/06/17 02:24:04;;;;;;;;;9.25;8.75;;;;;26.21;33.80;101478.03;5015991;28;45666;-85
2022/06/17 02:26:33;;;;;;;;;8.75;8.75;;;;;26.27;33.96;101494.28;4997246;28;47367;-84
2022/06/17 02:29:00;;;;;;;;;9.25;8.50;;;;;26.21;33.87;101496.84;5030714;28;48347;-85
2022/06/17 02:31:27;;;;;;;;;7.00;7.00;;;;;26.11;33.94;101482.88;5030356;28;45811;-85
2022/06/17 02:33:53;;;;;;;;;9.75;9.00;;;;;26.11;34.13;101483.72;5015634;28;45698;-85
2022/06/17 02:36:33;;;;;;;;;10.00;9.50;;;;;26.17;34.65;101498.25;5015453;28;46440;-85
2022/06/17 02:39:00;;;;;;;;;10.75;10.75;;;;;26.15;34.60;101494.91;5015521;28;46455;-85
2022/06/17 02:41:27;;;;;;;;;9.50;9.25;;;;;26.10;34.86;101490.13;5015525;28;45723;-85
2022/06/17 02:44:00;;;;;;;;;10.50;10.00;;;;;26.14;34.66;101495.94;4997782;28;45817;-86
2022/06/17 02:46:31;;;;;;;;;8.75;8.75;;;;;26.08;34.34;101486.78;5015365;28;46619;-85
2022/06/17 02:49:01;;;;;;;;;9.50;9.25;;;;;26.08;34.48;101500.19;4997319;28;46961;-85
2022/06/17 02:51:31;;;;;;;;;9.00;8.25;;;;;26.02;34.72;101503.63;4997429;28;45648;-85
2022/06/17 02:53:58;;;;;;;;;9.00;8.25;;;;;25.91;34.74;101477.28;5015754;28;45614;-85
2022/06/17 02:56:28;;;;;;;;;8.25;7.25;;;;;26.03;34.71;101493.72;4997259;28;47221;-86
2022/06/17 02:59:12;;;;;;;;;7.75;7.50;;;;;25.99;34.90;101493.28;5030223;28;48316;-86
2022/06/17 03:01:40;;;;;;;;;11.25;11.00;;;;;26.00;34.85;101494.13;5015036;28;45604;-85
2022/06/17 03:04:12;;;;;;;;;11.75;10.50;;;;;26.00;35.32;101496.81;5015157;28;45596;-84
2022/06/17 03:06:40;;;;;;;;;10.75;9.75;;;;;26.00;34.84;101505.69;5014950;28;46668;-85
2022/06/17 03:09:36;;;;;;;;;11.00;10.00;;;;;25.82;34.80;101470.34;5015132;28;45704;-85
2022/06/17 03:12:08;;;;;;;;;10.00;9.25;;;;;25.96;35.27;101500.91;4957103;28;45724;-85
2022/06/17 03:14:49;;;;;;;;;8.25;8.00;;;;;25.93;35.17;101491.34;4974006;28;45756;-84
2022/06/17 03:17:20;;;;;;;;;8.25;8.25;;;;;25.92;35.29;101490.50;4973332;28;45716;-83
2022/06/17 03:19:47;;;;;;;;;10.00;9.00;;;;;25.92;35.14;101487.81;4973338;28;45867;-84
2022/06/17 03:22:13;;;;;;;;;9.25;8.75;;;;;25.86;35.48;101474.31;4973224;28;45730;-84
2022/06/17 03:24:51;;;;;;;;;9.00;9.00;;;;;25.86;35.31;101475.16;4973721;28;45615;-85
2022/06/17 03:27:31;;;;;;;;;11.25;11.00;;;;;25.80;35.73;101465.16;4956432;28;47298;-83
2022/06/17 03:29:59;;;;;;;;;8.75;7.50;;;;;25.73;35.58;101461.56;4973246;28;45505;-84
2022/06/17 03:32:31;;;;;;;;;11.00;10.50;;;;;25.74;35.30;101467.78;4973261;28;45707;-85
2022/06/17 03:34:57;;;;;;;;;8.75;8.50;;;;;25.79;35.30;101474.25;4973021;28;45571;-85
2022/06/17 03:37:51;;;;;;;;;10.50;9.50;;;;;25.76;35.31;101466.56;4956356;28;48538;-85
2022/06/17 03:40:22;;;;;;;;;11.75;11.00;;;;;25.75;35.45;101462.19;4956316;28;47089;-85
2022/06/17 03:43:03;;;;;;;;;8.75;8.75;;;;;25.72;35.91;101449.16;4956460;28;45802;-84
2022/06/17 03:45:35;;;;;;;;;9.25;8.75;;;;;25.70;35.91;101437.75;4956401;28;45625;-85
2022/06/17 03:48:14;;;;;;;;;10.75;10.00;;;;;25.68;35.80;101447.03;4986871;28;46951;-85
2022/06/17 03:50:44;;;;;;;;;12.00;11.00;;;;;25.69;35.62;101476.41;5014461;28;45967;-85
2022/06/17 03:53:25;;;;;;;;;12.25;11.00;;;;;25.63;35.77;101481.66;4996432;28;45747;-85
2022/06/17 03:55:52;;;;;;;;;10.50;10.50;;;;;25.57;35.66;101477.03;5015898;28;45694;-85
2022/06/17 03:58:19;;;;;;;;;10.00;9.50;;;;;25.61;35.91;101486.38;5014694;28;45850;-85
2022/06/17 04:00:45;;;;;;;;;10.00;10.00;;;;;25.61;35.65;101495.25;5014561;28;45773;-84
2022/06/17 04:03:16;;;;;;;;;11.75;11.00;;;;;25.61;36.00;101505.16;5029490;28;45650;-85
2022/06/17 04:05:44;;;;;;;;;11.00;10.50;;;;;25.57;35.92;101502.03;5030633;28;45666;-85
2022/06/17 04:08:10;;;;;;;;;12.25;10.25;;;;;25.45;36.06;101485.50;5023018;28;46598;-84
2022/06/17 04:10:36;;;;;;;;;12.00;12.00;;;;;25.38;36.00;101463.09;5027700;28;46070;-82
2022/06/17 04:13:02;;;;;;;;;12.75;11.25;;;;;25.48;35.96;101484.28;5031206;28;45550;-84
2022/06/17 04:15:43;;;;;;;;;12.00;11.00;;;;;25.48;36.23;101484.28;5023288;28;45463;-85
2022/06/17 04:18:08;;;;;;;;;10.25;10.00;;;;;25.45;36.14;101473.94;5000161;28;46742;-85
2022/06/17 04:20:42;;;;;;;;;14.75;12.25;;;;;25.49;36.16;101475.22;4997261;28;47078;-85
2022/06/17 04:23:19;;;;;;;;;12.00;11.00;;;;;25.47;36.04;101478.13;4997591;28;45628;-85
2022/06/17 04:25:50;;;;;;;;;10.75;10.00;;;;;25.55;36.60;101484.41;5014857;28;45567;-86
2022/06/17 04:28:25;;;;;;;;;9.00;9.00;;;;;25.55;36.36;101495.97;5014272;28;46664;-85
2022/06/17 04:30:58;;;;;;;;;10.25;10.25;;;;;25.57;36.32;101493.97;5028508;28;46512;-85
2022/06/17 04:33:38;;;;;;;;;12.25;11.50;;;;;25.57;36.25;101493.13;5014055;28;45661;-85
2022/06/17 04:36:14;;;;;;;;;11.00;11.00;;;;;25.52;36.20;101485.63;5013944;28;45526;-85
2022/06/17 04:39:00;;;;;;;;;11.00;11.00;;;;;25.56;36.20;101489.63;5013836;28;45603;-84
2022/06/17 04:41:31;;;;;;;;;10.00;10.00;;;;;25.56;36.50;101491.47;5013702;28;46246;-85
2022/06/17 04:43:58;;;;;;;;;11.25;11.25;;;;;25.57;36.35;101499.34;5013935;28;45767;-84
2022/06/17 04:46:35;;;;;;;;;10.00;10.00;;;;;25.60;36.23;101501.66;5013662;28;45632;-85
2022/06/17 04:49:02;;;;;;;;;11.75;10.00;;;;;25.52;36.16;101490.16;4995785;28;47475;-85
2022/06/17 04:51:29;;;;;;;;;9.50;8.00;;;;;25.57;35.92;101496.66;5013859;28;46477;-86
2022/06/17 04:53:55;;;;;;;;;9.75;8.75;;;;;25.59;36.16;101504.53;4995783;28;45726;-85
2022/06/17 04:56:29;;;;;;;;;9.00;8.25;;;;;25.61;35.95;101506.00;5014443;28;45945;-85
2022/06/17 04:58:56;;;;;;;;;8.25;8.00;;;;;25.53;35.71;101489.97;5015367;28;46708;-84
2022/06/17 05:01:24;;;;;;;;;11.25;10.00;;;;;25.56;35.94;101500.34;4998139;28;48334;-84
2022/06/17 05:03:50;;;;;;;;;9.00;9.00;;;;;25.50;35.89;101490.31;5016459;28;45666;-85
2022/06/17 05:06:16;;;;;;;;;9.25;9.25;;;;;25.58;35.70;101492.97;4998887;28;45801;-86
2022/06/17 05:08:51;;;;;;;;;10.00;9.25;;;;;25.56;35.92;101497.69;5032175;28;45730;-85
2022/06/17 05:11:28;;;;;;;;;9.50;9.50;;;;;25.57;35.73;101493.97;5016801;28;46177;-85
2022/06/17 05:13:58;;;;;;;;;6.75;6.75;;;;;25.52;36.10;101490.16;5017149;28;45717;-86
2022/06/17 05:16:23;;;;;;;;;9.00;9.00;;;;;25.50;36.04;101488.47;4998931;28;45801;-85
2022/06/17 05:18:50;;;;;;;;;8.50;8.25;;;;;25.53;36.13;101491.81;4998853;28;47235;-85
2022/06/17 05:21:19;;;;;;;;;8.50;8.50;;;;;25.45;35.99;101484.69;5031822;28;48624;-84
2022/06/17 05:23:45;;;;;;;;;9.50;9.00;;;;;25.51;35.75;101494.69;5016795;28;45553;-85
2022/06/17 05:26:10;;;;;;;;;10.00;10.00;;;;;25.42;35.90;101468.97;4998800;28;45907;-85
2022/06/17 05:28:36;;;;;;;;;9.25;8.00;;;;;25.42;35.90;101474.31;5016599;28;46812;-85
2022/06/17 05:31:01;;;;;;;;;9.50;8.00;;;;;25.42;35.94;101474.31;5031340;28;47529;-86
2022/06/17 05:33:28;;;;;;;;;8.25;8.25;;;;;25.46;36.06;101472.94;5016519;28;45727;-86
2022/06/17 05:35:54;;;;;;;;;10.25;9.00;;;;;25.39;36.57;101464.78;5016684;28;45533;-85
2022/06/17 05:38:19;;;;;;;;;10.00;9.00;;;;;25.32;36.15;101450.44;4998325;28;48787;-86
2022/06/17 05:40:45;;;;;;;;;9.00;8.00;;;;;25.47;36.16;101470.06;5016485;28;46433;-85
2022/06/17 05:43:12;;;;;;;;;9.00;8.00;;;;;25.42;36.29;101466.28;4998369;28;45797;-85
2022/06/17 05:45:38;;;;;;;;;7.25;7.25;;;;;25.45;36.03;101463.22;5016623;28;45461;-86
2022/06/17 05:48:03;;;;;;;;;8.50;8.25;;;;;25.48;36.36;101471.72;5031530;28;47448;-85
2022/06/17 05:50:30;;;;;;;;;8.50;7.75;;;;;25.48;36.02;101469.03;5017074;28;47334;-86
2022/06/17 05:53:00;;;;;;;;;10.00;8.25;;;;;25.38;36.21;101448.84;5017501;28;45536;-88
2022/06/17 05:55:28;;;;;;;;;10.00;10.00;;;;;25.52;36.38;101480.25;5015549;28;45690;-86
2022/06/17 05:57:54;;;;;;;;;7.50;7.50;;;;;25.53;36.43;101475.72;5016742;28;46892;-87
2022/06/17 06:00:20;;;;;;;;;9.00;9.00;;;;;25.43;36.29;101466.06;4997766;28;47181;-87
2022/06/17 06:02:46;;;;;;;;;9.00;8.00;;;;;25.54;36.66;101488.09;4999029;28;45648;-86
2022/06/17 06:05:18;;;;;;;;;8.75;8.00;;;;;25.54;36.39;101482.72;5017107;28;45675;-87
2022/06/17 06:07:43;;;;;;;;;10.50;8.75;;;;;25.50;36.75;101472.38;5016797;28;47006;-87
2022/06/17 06:10:10;;;;;;;;;10.00;10.00;;;;;25.50;37.01;101471.53;4997772;28;46382;-87
2022/06/17 06:12:54;;;;;;;;;8.25;8.00;;;;;25.47;36.38;101463.88;4997981;28;45593;-86
2022/06/17 06:18:41;;;;;;;;;9.75;9.00;;;;;25.63;36.53;101462.88;5015461;28;45885;-85
2022/06/17 06:21:07;;;;;;;;;10.00;9.50;;;;;25.61;36.53;101457.69;5015093;28;45611;-85
2022/06/17 06:23:34;;;;;;;;;11.00;9.00;;;;;25.60;36.77;101461.38;5015502;28;45616;-85
2022/06/17 06:26:00;;;;;;;;;10.75;9.75;;;;;25.60;36.92;101455.19;5016137;28;45639;-87
2022/06/17 06:28:28;;;;;;;;;13.00;10.75;;;;;25.62;36.85;101458.53;5016788;28;47236;-85
2022/06/17 06:31:05;;;;;;;;;7.00;7.00;;;;;25.61;36.72;101448.78;5016863;28;45939;-85
2022/06/17 06:33:30;;;;;;;;;8.00;8.00;;;;;25.59;37.29;101442.81;5017223;28;45725;-86
2022/06/17 06:35:55;;;;;;;;;11.50;11.00;;;;;25.63;36.77;101436.03;4998340;28;45991;-84
2022/06/17 06:38:21;;;;;;;;;10.25;9.50;;;;;25.64;36.77;101433.13;5031432;28;48287;-85
2022/06/17 06:40:47;;;;;;;;;11.50;11.00;;;;;25.69;36.67;101435.28;5016136;28;46429;-85
2022/06/17 06:43:16;;;;;;;;;10.75;9.00;;;;;25.71;36.49;101442.13;5031047;28;45908;-84
2022/06/17 06:49:03;;;;;;;;;10.50;8.75;;;;;25.78;36.65;101447.56;5015568;28;45750;-85
2022/06/17 06:51:28;;;;;;;;;12.75;11.00;;;;;25.80;36.79;101443.66;5016937;28;45695;-85
2022/06/17 06:53:54;;;;;;;;;11.75;11.00;;;;;25.83;36.36;101442.47;5019509;28;45673;-84
2022/06/17 06:56:20;;;;;;;;;11.75;10.00;;;;;25.80;36.49;101432.13;5020422;28;45622;-85
2022/06/17 06:58:46;;;;;;;;;11.25;10.00;;;;;25.76;36.66;101428.13;5023166;28;45751;-85
2022/06/17 07:01:11;;;;;;;;;13.00;11.50;;;;;25.79;36.64;101431.28;5005205;28;46971;-84
2022/06/17 07:03:36;;;;;;;;;11.25;10.00;;;;;25.88;36.68;101443.56;5004640;28;45596;-83
2022/06/17 07:06:05;;;;;;;;;9.00;9.00;;;;;25.81;36.50;101429.22;5003060;28;45645;-83
2022/06/17 07:08:34;;;;;;;;;11.00;10.00;;;;;25.89;36.53;101449.78;5021152;28;46630;-84
2022/06/17 07:11:00;;;;;;;;;10.25;9.50;;;;;25.89;36.88;101445.25;5021091;28;45590;-83
2022/06/17 07:13:28;;;;;;;;;12.25;12.00;;;;;26.03;36.60;101458.81;5020780;28;45556;-82
2022/06/17 07:19:17;;;;;;;;;9.00;9.00;;;;;26.10;36.48;101475.84;5019333;28;45610;-83
2022/06/17 07:21:43;;;;;;;;;12.50;10.75;;;;;26.07;36.19;101469.00;5019602;28;45501;-80
2022/06/17 07:24:08;;;;;;;;;11.25;9.50;;;;;26.05;36.46;101457.63;5020894;28;45666;-84
2022/06/17 07:26:33;;;;;;;;;10.50;10.50;;;;;26.10;36.07;101465.94;5000909;28;45437;-80
2022/06/17 07:28:59;;;;;;;;;10.00;9.00;;;;;26.20;36.13;101471.84;5020523;28;46658;-82
2022/06/17 07:31:25;;;;;;;;;8.75;8.50;;;;;26.21;36.40;101469.97;5034843;28;46518;-82
2022/06/17 07:33:51;;;;;;;;;11.00;10.00;;;;;26.26;36.47;101456.84;5019962;28;45702;-81
2022/06/17 07:41:57;;;;;;;;;10.25;10.00;;;;;26.17;39.00;101457.97;5021424;28;45677;-84
2022/06/17 07:44:23;;;;;;;;;10.00;10.00;;;;;26.25;38.03;101482.88;5021518;28;45584;-79
2022/06/17 07:46:50;;;;;;;;;10.25;10.00;;;;;26.22;38.47;101490.47;5020796;28;45508;-82
2022/06/17 07:49:15;;;;;;;;;12.25;11.00;;;;;26.23;38.05;101495.69;5020016;28;45661;-82
2022/06/17 07:51:41;;;;;;;;;11.00;11.00;;;;;26.28;37.53;101509.38;5020774;28;45669;-81
2022/06/17 07:54:06;;;;;;;;;8.00;7.75;;;;;26.28;37.35;101513.91;5019761;28;45758;-83
2022/06/17 07:56:32;;;;;;;;;9.25;9.00;;;;;26.31;37.33;101519.75;5002442;28;45581;-83
2022/06/17 07:58:58;;;;;;;;;8.75;8.75;;;;;26.35;37.75;101520.19;5021654;28;46623;-83
2022/06/17 08:04:45;;;;;;;;;10.00;10.00;;;;;26.35;37.00;101517.50;5020698;28;45573;-84
2022/06/17 08:07:11;;;;;;;;;10.25;10.00;;;;;26.42;37.24;101523.78;5020609;28;45768;-83
2022/06/17 08:09:36;;;;;;;;;10.00;10.00;;;;;26.41;36.95;101522.13;5019750;28;45632;-83
2022/06/17 08:12:03;;;;;;;;;9.75;9.00;;;;;26.44;37.00;101529.81;5019433;28;45566;-85
2022/06/17 08:14:28;;;;;;;;;10.00;10.00;;;;;26.41;37.27;101523.97;5022185;28;45826;-83
2022/06/17 08:16:54;;;;;;;;;11.00;10.00;;;;;26.43;36.73;101521.94;5019260;28;45378;-84
2022/06/17 08:19:20;;;;;;;;;13.25;11.00;;;;;26.57;36.94;101534.47;5015399;28;45797;-82
2022/06/17 08:21:45;;;;;;;;;8.25;8.25;;;;;26.59;36.25;101535.97;5014644;28;46265;-82
2022/06/17 08:24:11;;;;;;;;;10.25;9.50;;;;;26.53;35.94;101517.91;5016108;28;45468;-82
2022/06/17 08:26:36;;;;;;;;;11.25;10.50;;;;;26.64;36.15;101521.94;5015321;28;45681;-82
2022/06/17 08:29:02;;;;;;;;;12.00;9.00;;;;;26.70;36.09;101519.31;5014722;28;46624;-81
2022/06/17 08:35:04;;;;;;;;;9.75;9.75;;;;;26.79;35.69;101516.50;5014764;28;45865;-84
2022/06/17 08:37:31;;;;;;;;;11.50;11.00;;;;;26.87;35.71;101521.75;5016850;28;45642;-83
2022/06/17 08:39:58;;;;;;;;;10.75;9.25;;;;;26.89;35.86;101517.03;5019691;28;45752;-84
2022/06/17 08:42:29;;;;;;;;;8.25;8.00;;;;;26.98;35.94;101521.28;5000244;28;48353;-84
2022/06/17 08:45:01;;;;;;;;;10.25;9.50;;;;;26.93;35.59;101494.13;5020069;28;45773;-84
2022/06/17 08:47:37;;;;;;;;;8.50;8.00;;;;;27.03;36.20;101500.00;5020753;28;45661;-84
2022/06/17 08:50:12;;;;;;;;;10.25;9.00;;;;;27.12;35.50;101501.50;5018559;28;45491;-84
2022/06/17 08:52:58;;;;;;;;;10.00;9.50;;;;;27.19;35.86;101499.69;5035515;28;47855;-83
2022/06/17 08:55:39;;;;;;;;;11.00;11.00;;;;;27.22;36.43;101490.38;5018650;28;45882;-84
2022/06/17 08:58:22;;;;;;;;;10.00;9.50;;;;;27.31;35.01;101500.84;4999869;28;46018;-84
2022/06/17 09:01:08;;;;;;;;;7.75;7.50;;;;;27.30;34.45;101488.41;5017839;28;45661;-84
2022/06/17 09:03:59;;;;;;;;;10.00;9.00;;;;;27.40;33.91;101491.56;5017821;28;46349;-83
2022/06/17 09:06:40;;;;;;;;;8.25;8.25;;;;;27.49;33.53;101503.84;5017426;28;45568;-84
2022/06/17 09:09:26;;;;;;;;;8.00;8.00;;;;;27.54;33.64;101500.56;5033100;28;45749;-82
2022/06/17 09:12:11;;;;;;;;;8.25;8.25;;;;;27.53;32.79;101488.16;5032901;28;47525;-84
2022/06/17 09:17:54;;;;;;;;;7.50;7.00;;;;;27.72;32.27;101494.66;5017613;28;45453;-84
2022/06/17 09:20:26;;;;;;;;;7.00;7.00;;;;;27.78;31.97;101488.50;5017564;28;45612;-85
2022/06/17 09:22:56;;;;;;;;;7.25;6.50;;;;;27.75;32.34;101481.63;5017333;28;45867;-83
2022/06/17 09:25:28;;;;;;;;;6.00;5.00;;;;;27.80;32.20;101476.47;5017746;28;45620;-84
2022/06/17 09:27:56;;;;;;;;;9.00;8.00;;;;;27.85;31.68;101474.03;5017571;28;45591;-85
2022/06/17 09:33:53;;;;;;;;;11.00;10.00;;;;;28.05;32.79;101482.19;5016859;28;45538;-84
2022/06/17 09:36:34;;;;;;;;;8.00;7.00;;;;;28.09;31.97;101478.03;5018103;28;46199;-82
2022/06/17 09:39:11;;;;;;;;;7.25;7.25;;;;;28.11;32.71;101473.28;5016778;28;45531;-84
2022/06/17 09:41:42;;;;;;;;;8.25;8.25;;;;;28.18;32.64;101476.03;5016695;28;45781;-84
2022/06/17 09:44:24;;;;;;;;;9.00;9.00;;;;;28.20;31.75;101488.25;4998898;28;47809;-82
2022/06/17 09:50:24;;;;;;;;;9.00;8.00;;;;;28.34;32.38;101484.56;5016091;28;45614;-83
2022/06/17 09:53:11;;;;;;;;;10.00;9.00;;;;;28.42;31.21;101490.81;4999244;28;45533;-84
2022/06/17 09:55:52;;;;;;;;;7.25;6.75;;;;;28.45;31.11;101485.00;5018006;28;45651;-84
2022/06/17 09:58:34;;;;;;;;;9.00;8.25;;;;;28.50;31.63;101477.16;5017996;28;45988;-84
2022/06/17 10:01:01;;;;;;;;;8.75;8.00;;;;;28.50;31.03;101469.06;5016359;28;45658;-82
2022/06/17 10:03:32;;;;;;;;;9.25;7.75;;;;;28.57;30.96;101470.69;5016844;28;45489;-81
2022/06/17 10:06:22;;;;;;;;;7.75;7.75;;;;;28.68;30.65;101478.19;5016591;28;45674;-83
2022/06/17 10:09:09;;;;;;;;;7.50;7.50;;;;;28.72;30.23;101471.38;5016582;28;45561;-82
2022/06/17 10:11:38;;;;;;;;;8.75;8.00;;;;;28.78;30.22;101486.72;5031316;28;46116;-84
2022/06/17 10:14:06;;;;;;;;;9.50;8.00;;;;;28.83;30.44;101480.69;5016605;28;45625;-85
2022/06/17 10:20:06;;;;;;;;;8.00;7.75;;;;;28.94;29.88;101476.56;5016288;28;45639;-83
2022/06/17 10:22:55;;;;;;;;;9.00;9.00;;;;;28.98;29.65;101485.91;5017783;28;45462;-87
2022/06/17 10:25:38;;;;;;;;;8.00;7.00;;;;;29.02;30.15;101477.19;5018004;28;45611;-83
2022/06/17 10:28:33;;;;;;;;;10.00;9.00;;;;;29.01;30.13;101458.50;5016336;28;45643;-85
2022/06/17 10:34:27;;;;;;;;;6.00;6.00;;;;;29.14;28.54;101477.38;5016376;28;45516;-82
2022/06/17 10:36:54;;;;;;;;;7.00;7.00;;;;;29.17;28.68;101474.25;5017920;28;45770;-85
2022/06/17 10:39:24;;;;;;;;;10.25;8.75;;;;;29.23;28.92;101467.19;5001715;28;46463;-84
2022/06/17 10:41:50;;;;;;;;;8.75;8.00;;;;;29.25;28.77;101467.81;5026113;28;45426;-86
2022/06/17 10:44:21;;;;;;;;;9.25;8.75;;;;;29.29;28.32;101469.03;5028700;28;45668;-85
2022/06/17 10:50:14;;;;;;;;;6.00;5.25;;;;;29.39;28.28;101469.47;5017764;28;45700;-87
2022/06/17 10:52:45;;;;;;;;;6.25;6.00;;;;;29.39;27.69;101466.75;5031518;28;46501;-84
2022/06/17 10:55:24;;;;;;;;;5.75;5.50;;;;;29.47;28.09;101478.19;5016102;28;45739;-85
2022/06/17 10:58:12;;;;;;;;;5.25;5.25;;;;;29.52;27.89;101472.97;5015831;28;45560;-83
2022/06/17 11:00:51;;;;;;;;;8.00;7.75;;;;;29.53;28.20;101466.50;5015730;28;45660;-84
2022/06/17 11:03:22;;;;;;;;;8.00;7.00;;;;;29.58;28.02;101469.41;4996410;28;47208;-85
2022/06/17 11:06:08;;;;;;;;;9.00;8.75;;;;;29.69;28.03;101480.63;5015850;28;45723;-85
2022/06/17 11:08:39;;;;;;;;;7.75;6.75;;;;;29.66;28.17;101468.34;5015691;28;45433;-85
2022/06/17 11:13:55;;;;;;;;;7.00;7.00;;;;;29.79;28.18;101483.69;5015130;28;45585;-84
2022/06/17 11:16:25;;;;;;;;;7.50;7.25;;;;;29.86;28.23;101481.78;5015377;28;45536;-84
2022/06/17 11:19:03;;;;;;;;;6.00;5.00;;;;;29.87;28.06;101484.28;5015445;28;45704;-85
2022/06/17 11:21:35;;;;;;;;;8.25;7.50;;;;;29.92;27.37;101481.78;5014849;28;45674;-83
2022/06/17 11:24:04;;;;;;;;;6.25;6.25;;;;;29.97;27.75;101471.16;5015357;28;45556;-83
2022/06/17 11:26:33;;;;;;;;;7.50;6.75;;;;;29.98;27.73;101464.72;5013395;28;45646;-83
2022/06/17 11:29:18;;;;;;;;;7.00;7.00;;;;;30.03;27.73;101464.88;5015410;28;45803;-84
2022/06/17 11:31:49;;;;;;;;;6.25;6.25;;;;;30.05;27.50;101464.69;5014316;28;46527;-83
2022/06/17 11:34:17;;;;;;;;;6.50;6.25;;;;;30.13;27.83;101471.69;5014749;28;46078;-84
2022/06/17 11:36:51;;;;;;;;;7.25;6.50;;;;;30.14;27.84;101459.84;5014627;28;45447;-83
2022/06/17 11:39:34;;;;;;;;;7.00;6.75;;;;;30.21;27.28;101466.88;5015186;28;45762;-83
2022/06/17 11:42:25;;;;;;;;;10.00;8.25;;;;;30.27;27.59;101454.38;5014455;28;45472;-84
2022/06/17 11:45:00;;;;;;;;;6.00;5.75;;;;;30.31;27.22;101447.47;5011928;28;46396;-82
2022/06/17 11:47:29;;;;;;;;;8.00;8.00;;;;;30.28;27.32;101435.22;5014181;28;45720;-81
2022/06/17 11:49:58;;;;;;;;;9.00;7.75;;;;;30.34;27.69;101437.03;5014446;28;45548;-81
2022/06/17 11:52:32;;;;;;;;;6.00;6.00;;;;;30.37;27.38;101431.19;5014315;28;45642;-84
2022/06/17 11:54:59;;;;;;;;;7.00;7.00;;;;;30.44;27.14;101429.28;5028927;28;47313;-83
2022/06/17 11:57:39;;;;;;;;;8.50;7.25;;;;;30.51;27.65;101436.53;5014270;28;45697;-83
2022/06/17 12:00:45;;;;;;;;;8.00;8.00;;;;;30.57;27.29;101422.13;5014373;28;45508;-83
2022/06/17 12:03:16;;;;;;;;;7.00;6.75;;;;;30.58;26.59;101416.50;4975766;28;48910;-84
2022/06/17 12:05:42;;;;;;;;;6.00;6.00;;;;;30.63;27.24;101423.94;4992731;28;46212;-85
2022/06/17 12:08:26;;;;;;;;;6.25;6.25;;;;;30.66;26.85;101416.19;4994294;28;45622;-81
2022/06/17 12:10:58;;;;;;;;;6.25;6.25;;;;;30.70;26.75;101413.91;4997966;28;45730;-83
2022/06/17 12:13:30;;;;;;;;;6.50;6.50;;;;;30.71;26.32;101411.00;4993130;28;45536;-81
2022/06/17 12:16:08;;;;;;;;;7.50;7.25;;;;;30.76;26.66;101415.72;4995614;28;46555;-81
2022/06/17 12:18:38;;;;;;;;;6.75;6.75;;;;;30.79;27.12;101416.09;4992479;28;45712;-82
2022/06/17 12:21:40;;;;;;;;;6.75;6.00;;;;;30.85;26.26;101412.50;4995541;28;45863;-82
2022/06/17 12:24:30;;;;;;;;;5.00;5.00;;;;;30.88;26.27;101391.47;4995341;28;45786;-84
2022/06/17 12:26:59;;;;;;;;;7.00;6.25;;;;;30.97;26.60;101399.06;4995175;28;45847;-83
2022/06/17 12:29:34;;;;;;;;;7.00;7.00;;;;;31.01;26.59;101397.56;4995513;28;45607;-82
2022/06/17 12:35:27;;;;;;;;;5.75;5.75;;;;;31.16;26.36;101397.22;4994240;28;46165;-83
2022/06/17 12:37:59;;;;;;;;;7.25;5.75;;;;;31.20;26.05;101395.75;4995694;28;46304;-82
2022/06/17 12:40:49;;;;;;;;;4.75;4.00;;;;;31.24;25.80;101394.22;4997257;28;45756;-82
2022/06/17 12:43:17;;;;;;;;;5.00;5.00;;;;;31.30;25.50;101393.31;5012493;28;45852;-80
2022/06/17 12:45:57;;;;;;;;;7.75;7.00;;;;;31.35;25.95;101385.34;4997280;28;46383;-81
2022/06/17 12:54:53;;;;;;;;;5.00;4.50;;;;;31.52;25.96;101369.31;4997166;28;45607;-81
2022/06/17 12:57:25;;;;;;;;;6.00;6.00;;;;;31.57;26.51;101367.59;4997737;28;46498;-82
2022/06/17 13:00:12;;;;;;;;;6.00;6.00;;;;;31.65;26.02;101369.13;4997085;28;46307;-83